Time;durP1;ratioP1;P1;durP2;ratioP2;P2;SDS_P1;SDS_P2;PMS_P1;PMS_P2;Temp;Humidity;BMP_temperature;BMP_pressure;BME280_temperature;BME280_humidity;BME280_pressure;Samples;Min_cycle;Max_cycle;Signal;HPM_P1;HPM_P2
2022/05/18 00:02:58;;;;;;;6.5;3.3;;;;;;;;;;;;;-83
2022/05/18 00:03:55;;;;;;;;;;;;;;;17.6;56.87109;101888.4;;;;-82
2022/05/18 00:13:57;;;;;;;;;;;;;;;17.44;57.51855;101887;;;;-82
2022/05/18 00:18:56;;;;;;;;;;;;;;;17.38;57.36328;101891.7;;;;-85
2022/05/18 00:23:55;;;;;;;;;;;;;;;17.32;58.82715;101899;;;;-81
2022/05/18 00:28:56;;;;;;;;;;;;;;;17.27;58.23145;101906.4;;;;-83
2022/05/18 00:33:03;;;;;;;7.5;3.9;;;;;;;;;;;;;-82
2022/05/18 00:33:55;;;;;;;;;;;;;;;17.2;57.86133;101905.2;;;;-82
2022/05/18 00:38:55;;;;;;;;;;;;;;;17.14;57.84082;101903.5;;;;-83
2022/05/18 00:43:56;;;;;;;;;;;;;;;17.05;57.73926;101899.2;;;;-81
2022/05/18 00:48:57;;;;;;;;;;;;;;;17;58.26465;101903.2;;;;-82
2022/05/18 00:53:57;;;;;;;;;;;;;;;16.95;58.37012;101902;;;;-83
2022/05/18 00:58:58;;;;;;;;;;;;;;;16.89;58.71191;101911.6;;;;-83
2022/05/18 01:03:08;;;;;;;9.5;4.4;;;;;;;;;;;;;-82
2022/05/18 01:03:56;;;;;;;;;;;;;;;16.84;59.18066;101919.6;;;;-82
2022/05/18 01:08:58;;;;;;;;;;;;;;;16.79;59.91895;101921;;;;-81
2022/05/18 01:13:56;;;;;;;;;;;;;;;16.73;60.10352;101920.5;;;;-82
2022/05/18 01:18:57;;;;;;;;;;;;;;;16.67;59.75586;101919.1;;;;-81
2022/05/18 01:24:01;;;;;;;;;;;;;;;16.64;60.19238;101914.7;;;;-82
2022/05/18 01:29:01;;;;;;;;;;;;;;;16.6;60.94336;101911.3;;;;-83
2022/05/18 01:33:07;;;;;;;9.4;5.1;;;;;;;;;;;;;-84
2022/05/18 01:33:55;;;;;;;;;;;;;;;16.56;60.62109;101905.5;;;;-82
2022/05/18 01:38:55;;;;;;;;;;;;;;;16.53;60.79785;101906.1;;;;-83
2022/05/18 01:43:59;;;;;;;;;;;;;;;16.48;61.03906;101904.3;;;;-82
2022/05/18 01:48:56;;;;;;;;;;;;;;;16.44;61.35938;101895.7;;;;-83
2022/05/18 01:53:55;;;;;;;;;;;;;;;16.41;61.94336;101896.3;;;;-80
2022/05/18 01:58:57;;;;;;;;;;;;;;;16.38;61.45313;101895.6;;;;-83
2022/05/18 02:03:05;;;;;;;11.2;5.9;;;;;;;;;;;;;-82
2022/05/18 02:03:57;;;;;;;;;;;;;;;16.34;61.83105;101896.3;;;;-82
2022/05/18 02:08:55;;;;;;;;;;;;;;;16.31;62.13086;101890.4;;;;-82
2022/05/18 02:13:56;;;;;;;;;;;;;;;16.28;61.96973;101891.2;;;;-83
2022/05/18 02:18:57;;;;;;;;;;;;;;;16.24;62.73047;101889.3;;;;-81
2022/05/18 02:23:56;;;;;;;;;;;;;;;16.2;62.84863;101885;;;;-81
2022/05/18 02:28:55;;;;;;;;;;;;;;;16.19;62.94824;101887.4;;;;-82
2022/05/18 02:33:07;;;;;;;10.7;6.7;;;;;;;;;;;;;-83
2022/05/18 02:33:58;;;;;;;;;;;;;;;16.15;62.71777;101885;;;;-82
2022/05/18 02:38:55;;;;;;;;;;;;;;;16.13;63.05469;101879.9;;;;-83
2022/05/18 02:43:56;;;;;;;;;;;;;;;16.09;63.80176;101874.5;;;;-81
2022/05/18 02:48:55;;;;;;;;;;;;;;;16.06;62.96387;101876.6;;;;-82
2022/05/18 02:54:02;;;;;;;;;;;;;;;16.05;63.61426;101876.5;;;;-83
2022/05/18 02:58:56;;;;;;;;;;;;;;;16.02;64.24219;101869.3;;;;-82
2022/05/18 03:03:11;;;;;;;14.4;7.7;;;;;;;;;;;;;-84
2022/05/18 03:03:56;;;;;;;;;;;;;;;16.02;64.40039;101881.3;;;;-83
2022/05/18 03:08:56;;;;;;;;;;;;;;;16;64.53223;101885.2;;;;-83
2022/05/18 03:13:56;;;;;;;;;;;;;;;15.99;64.11328;101885.5;;;;-83
2022/05/18 03:19:12;;;;;;;;;;;;;;;15.98;64.00098;101890.1;;;;-81
2022/05/18 03:24:04;;;;;;;;;;;;;;;15.98;64.73242;101892;;;;-83
2022/05/18 03:29:07;;;;;;;;;;;;;;;15.97;63.72656;101898.6;;;;-82
2022/05/18 03:33:11;;;;;;;16.7;9;;;;;;;;;;;;;-80
2022/05/18 03:33:56;;;;;;;;;;;;;;;15.96;64.52539;101898;;;;-83
2022/05/18 03:38:58;;;;;;;;;;;;;;;15.96;64.4248;101905.4;;;;-82
2022/05/18 03:43:56;;;;;;;;;;;;;;;15.95;63.44531;101913.9;;;;-83
2022/05/18 03:48:55;;;;;;;;;;;;;;;15.97;64.33691;101920.7;;;;-85
2022/05/18 03:53:59;;;;;;;;;;;;;;;15.99;64.41699;101924.8;;;;-81
2022/05/18 03:58:56;;;;;;;;;;;;;;;16.02;64.51172;101928.7;;;;-83
2022/05/18 04:03:13;;;;;;;15.6;9.6;;;;;;;;;;;;;-84
2022/05/18 04:03:55;;;;;;;;;;;;;;;16.04;64.68457;101930.2;;;;-81
2022/05/18 04:08:56;;;;;;;;;;;;;;;16.07;64.40625;101931.8;;;;-81
2022/05/18 04:13:56;;;;;;;;;;;;;;;16.09;64.52148;101938;;;;-81
2022/05/18 04:18:55;;;;;;;;;;;;;;;16.1;64.20898;101940.3;;;;-83
2022/05/18 04:23:57;;;;;;;;;;;;;;;16.12;64.03027;101949;;;;-81
2022/05/18 04:28:56;;;;;;;;;;;;;;;16.15;64.4541;101952.2;;;;-83
2022/05/18 04:33:15;;;;;;;17.1;10.2;;;;;;;;;;;;;-82
2022/05/18 04:33:56;;;;;;;;;;;;;;;16.17;64.10742;101965.2;;;;-83
2022/05/18 04:38:55;;;;;;;;;;;;;;;16.24;63.8457;101969.9;;;;-82
2022/05/18 04:43:56;;;;;;;;;;;;;;;16.31;63.37109;101968.3;;;;-84
2022/05/18 04:48:55;;;;;;;;;;;;;;;16.41;64.11816;101973.9;;;;-83
2022/05/18 04:53:55;;;;;;;;;;;;;;;16.52;63.45898;101969.6;;;;-81
2022/05/18 04:58:56;;;;;;;;;;;;;;;16.62;63.63086;101977.7;;;;-83
2022/05/18 05:03:16;;;;;;;16;9.6;;;;;;;;;;;;;-82
2022/05/18 05:03:58;;;;;;;;;;;;;;;16.69;62.7168;101977.4;;;;-82
2022/05/18 05:08:55;;;;;;;;;;;;;;;16.79;62.57129;101979.9;;;;-82
2022/05/18 05:13:56;;;;;;;;;;;;;;;16.91;62.92676;101986.6;;;;-82
2022/05/18 05:18:58;;;;;;;;;;;;;;;17;62.36426;101986.4;;;;-82
2022/05/18 05:23:55;;;;;;;;;;;;;;;17.1;61.56445;101991.3;;;;-82
2022/05/18 05:28:56;;;;;;;;;;;;;;;17.21;60.9707;102000.2;;;;-84
2022/05/18 05:33:18;;;;;;;16.4;9;;;;;;;;;;;;;-81
2022/05/18 05:33:55;;;;;;;;;;;;;;;17.33;60.80664;102006;;;;-83
2022/05/18 05:38:56;;;;;;;;;;;;;;;17.45;60.73242;101999.5;;;;-83
2022/05/18 05:43:56;;;;;;;;;;;;;;;17.57;60.33984;102001.6;;;;-82
2022/05/18 05:48:55;;;;;;;;;;;;;;;17.72;60.03418;102001.9;;;;-82
2022/05/18 05:53:55;;;;;;;;;;;;;;;17.99;59.32227;101999.6;;;;-84
2022/05/18 05:58:58;;;;;;;;;;;;;;;18.36;58.73633;101999.3;;;;-81
2022/05/18 06:03:25;;;;;;;14.2;7.9;;;;;;;;;;;;;-84
2022/05/18 06:03:58;;;;;;;;;;;;;;;18.97;57.74023;102000.1;;;;-83
2022/05/18 06:08:56;;;;;;;;;;;;;;;19.71;56.5498;102007.7;;;;-85
2022/05/18 06:13:55;;;;;;;;;;;;;;;20.21;56.03223;102014.4;;;;-82
2022/05/18 06:18:55;;;;;;;;;;;;;;;20.39;56.1123;102026.5;;;;-84
2022/05/18 06:23:58;;;;;;;;;;;;;;;20.39;56.28418;102030.9;;;;-82
2022/05/18 06:28:58;;;;;;;;;;;;;;;20.41;56.52539;102039.7;;;;-82
2022/05/18 06:33:23;;;;;;;14.9;8;;;;;;;;;;;;;-82
2022/05/18 06:33:58;;;;;;;;;;;;;;;20.52;56.50488;102047.4;;;;-82
2022/05/18 06:38:58;;;;;;;;;;;;;;;20.58;56.49023;102051.6;;;;-83
2022/05/18 06:44:00;;;;;;;;;;;;;;;20.87;56.14941;102048.3;;;;-83
2022/05/18 06:49:02;;;;;;;;;;;;;;;21.42;55.52246;102064.5;;;;-83
2022/05/18 06:53:57;;;;;;;;;;;;;;;21.73;54.68164;102082.4;;;;-82
2022/05/18 06:58:56;;;;;;;;;;;;;;;21.88;54.48047;102083.5;;;;-83
2022/05/18 07:03:27;;;;;;;13.7;6.9;;;;;;;;;;;;;-83
2022/05/18 07:03:55;;;;;;;;;;;;;;;21.95;54.58008;102093.1;;;;-83
2022/05/18 07:09:00;;;;;;;;;;;;;;;21.94;54.61426;102095.2;;;;-82
2022/05/18 07:13:58;;;;;;;;;;;;;;;21.92;54.71484;102088.4;;;;-83
2022/05/18 07:18:55;;;;;;;;;;;;;;;21.98;54.80176;102098.1;;;;-84
2022/05/18 07:23:59;;;;;;;;;;;;;;;22.11;54.54395;102097.9;;;;-83
2022/05/18 07:28:55;;;;;;;;;;;;;;;22.19;54.25586;102093;;;;-80
2022/05/18 07:33:30;;;;;;;12.7;6.6;;;;;;;;;;;;;-82
2022/05/18 07:33:55;;;;;;;;;;;;;;;22.24;54.26172;102092.7;;;;-84
2022/05/18 07:38:55;;;;;;;;;;;;;;;22.49;53.97168;102095.6;;;;-82
2022/05/18 07:44:04;;;;;;;;;;;;;;;22.82;53.27539;102102.7;;;;-82
2022/05/18 07:48:59;;;;;;;;;;;;;;;23.26;52.50195;102101.6;;;;-83
2022/05/18 07:53:55;;;;;;;;;;;;;;;23.74;51.44336;102097.3;;;;-83
2022/05/18 07:58:55;;;;;;;;;;;;;;;24.17;50.36426;102100.5;;;;-83
2022/05/18 08:03:32;;;;;;;14.6;7.1;;;;;;;;;;;;;-82
2022/05/18 08:03:55;;;;;;;;;;;;;;;24.56;49.75098;102112.2;;;;-83
2022/05/18 08:08:55;;;;;;;;;;;;;;;24.94;49.07813;102126.6;;;;-82
2022/05/18 08:18:55;;;;;;;;;;;;;;;25.59;47.91113;102131.3;;;;-82
2022/05/18 08:23:56;;;;;;;;;;;;;;;25.85;47.46582;102139.4;;;;-81
2022/05/18 08:29:01;;;;;;;;;;;;;;;26.06;47.09375;102143.1;;;;-84
2022/05/18 08:33:36;;;;;;;12.8;7.8;;;;;;;;;;;;;-82
2022/05/18 08:33:58;;;;;;;;;;;;;;;26.27;46.57129;102155.2;;;;-83
2022/05/18 08:38:56;;;;;;;;;;;;;;;26.58;46.19824;102157.1;;;;-83
2022/05/18 08:43:57;;;;;;;;;;;;;;;26.92;45.45508;102160.7;;;;-83
2022/05/18 08:49:00;;;;;;;;;;;;;;;27.11;44.88184;102164.1;;;;-83
2022/05/18 08:54:01;;;;;;;;;;;;;;;27.25;44.55957;102164.7;;;;-81
2022/05/18 08:58:56;;;;;;;;;;;;;;;27.31;44.36816;102168.7;;;;-83
2022/05/18 09:03:41;;;;;;;15.7;8.9;;;;;;;;;;;;;-84
2022/05/18 09:03:58;;;;;;;;;;;;;;;27.36;44.04688;102169.3;;;;-83
2022/05/18 09:13:56;;;;;;;;;;;;;;;27.95;43.88379;102176.6;;;;-82
2022/05/18 09:19:04;;;;;;;;;;;;;;;28.35;42.93262;102179.4;;;;-82
2022/05/18 09:24:10;;;;;;;;;;;;;;;28.73;42.63086;102180.6;;;;-83
2022/05/18 09:29:01;;;;;;;;;;;;;;;29.06;41.7168;102181.7;;;;-83
2022/05/18 09:34:00;;;;;;;13;7.5;;;;;;;;;;;;;-83
2022/05/18 09:34:19;;;;;;;;;;;;;;;29.1;41.31152;102165.6;;;;-83
2022/05/18 09:39:00;;;;;;;;;;;;;;;29.15;40.91895;102192.3;;;;-83
2022/05/18 09:44:02;;;;;;;;;;;;;;;29.02;40.97754;102194.9;;;;-84
2022/05/18 09:49:08;;;;;;;;;;;;;;;28.9;41.12988;102195.6;;;;-83
2022/05/18 09:53:55;;;;;;;;;;;;;;;28.8;41.28418;102199;;;;-83
2022/05/18 09:58:58;;;;;;;;;;;;;;;28.81;41.92773;102203;;;;-83
2022/05/18 10:09:18;;;;;;;;;;;;;;;29.27;41.31543;102202.9;;;;-84
2022/05/18 10:14:10;;;;;;;;;;;;;;;29.42;41.00195;102204.6;;;;-84
2022/05/18 10:19:03;;;;;;;;;;;;;;;29.58;40.70117;102204.1;;;;-83
2022/05/18 10:24:02;;;;;;;;;;;;;;;29.81;40.87402;102200.5;;;;-84
2022/05/18 10:28:59;;;;;;;;;;;;;;;30.21;41.13184;102200.3;;;;-83
2022/05/18 10:33:57;;;;;;;8.5;4.1;;;;;;;;;;;;;-84
2022/05/18 10:34:28;;;;;;;;;;;;;;;30.55;40.09668;102199.6;;;;-83
2022/05/18 10:43:18;;;;;;;;;;;;;;;30.89;39.44727;102189.8;;;;-84
2022/05/18 10:48:09;;;;;;;;;;;;;;;30.9;39.22559;102192.5;;;;-83
2022/05/18 10:53:15;;;;;;;;;;;;;;;30.83;38.9248;102194.1;;;;-86
2022/05/18 10:58:17;;;;;;;;;;;;;;;30.76;39.29492;102204.7;;;;-85
2022/05/18 11:03:10;;;;;;;;;;;;;;;30.72;39.06934;102207;;;;-86
2022/05/18 11:04:01;;;;;;;10.3;4;;;;;;;;;;;;;-82
2022/05/18 11:08:05;;;;;;;;;;;;;;;30.67;39.20605;102214.1;;;;-75
2022/05/18 11:13:10;;;;;;;;;;;;;;;30.6;39.28027;102210;;;;-76
2022/05/18 11:18:14;;;;;;;;;;;;;;;30.51;39.54297;102212.8;;;;-75
2022/05/18 11:23:12;;;;;;;;;;;;;;;30.4;39.71973;102216;;;;-76
2022/05/18 11:28:10;;;;;;;;;;;;;;;30.24;39.73047;102222.4;;;;-76
2022/05/18 11:33:08;;;;;;;;;;;;;;;30.06;39.99609;102219.2;;;;-74
2022/05/18 11:34:05;;;;;;;8.6;3.9;;;;;;;;;;;;;-75
2022/05/18 11:38:12;;;;;;;;;;;;;;;29.85;40.11719;102216.6;;;;-76
2022/05/18 11:48:13;;;;;;;;;;;;;;;29.63;40.41309;102209.3;;;;-76
2022/05/18 11:53:11;;;;;;;;;;;;;;;29.61;40.75;102198.3;;;;-79
2022/05/18 11:58:09;;;;;;;;;;;;;;;29.7;40.86328;102196.9;;;;-79
2022/05/18 12:03:16;;;;;;;;;;;;;;;29.87;41.00781;102197.1;;;;-78
2022/05/18 12:04:22;;;;;;;6.9;3.1;;;;;;;;;;;;;-78
2022/05/18 12:08:24;;;;;;;;;;;;;;;30.04;41.16309;102197;;;;-79
2022/05/18 12:13:08;;;;;;;;;;;;;;;30.12;41.2998;102204.6;;;;-78
2022/05/18 12:18:08;;;;;;;;;;;;;;;30.12;41.3457;102207.3;;;;-76
2022/05/18 12:23:06;;;;;;;;;;;;;;;30.1;41.30957;102217.2;;;;-77
2022/05/18 12:28:06;;;;;;;;;;;;;;;30.04;41.08203;102216.1;;;;-77
2022/05/18 12:33:06;;;;;;;;;;;;;;;29.98;40.39844;102222.8;;;;-77
2022/05/18 12:34:19;;;;;;;8.3;3;;;;;;;;;;;;;-78
2022/05/18 12:38:10;;;;;;;;;;;;;;;30.04;40.05176;102224.5;;;;-78
2022/05/18 12:43:08;;;;;;;;;;;;;;;30.17;39.89941;102219.4;;;;-77
2022/05/18 12:48:14;;;;;;;;;;;;;;;30.39;39.47363;102211.1;;;;-77
2022/05/18 12:53:06;;;;;;;;;;;;;;;30.63;39.6709;102211.9;;;;-79
2022/05/18 12:58:20;;;;;;;;;;;;;;;30.99;38.97461;102210.7;;;;-79
2022/05/18 13:03:25;;;;;;;;;;;;;;;31.28;38.40039;102213;;;;-78
2022/05/18 13:06:59;;;;;;;;;;;;;;;31.23;37.46973;102209.4;;;;-77
2022/05/18 13:11:57;;;;;;;;;;;;;;;29.8;36.92969;102212.2;;;;-76
2022/05/18 13:17:19;;;;;;;;;;;;;;;29.17;37.54492;102207.6;;;;-77
2022/05/18 13:22:03;;;;;;;;;;;;;;;30.16;38.16602;102203.7;;;;-75
2022/05/18 13:26:56;;;;;;;;;;;;;;;31.31;37.06543;102201.4;;;;-77
2022/05/18 13:32:01;;;;;;;;;;;;;;;31.95;36.57617;102203.8;;;;-78
2022/05/18 13:34:22;;;;;;;5;1.4;;;;;;;;;;;;;-78
2022/05/18 13:36:59;;;;;;;;;;;;;;;32.32;35.35742;102209.7;;;;-76
2022/05/18 13:41:56;;;;;;;;;;;;;;;32.55;34.7627;102201.4;;;;-77
2022/05/18 13:46:56;;;;;;;;;;;;;;;32.72;35.43555;102202;;;;-77
2022/05/18 13:51:58;;;;;;;;;;;;;;;32.81;34.46387;102198.2;;;;-77
2022/05/18 13:56:57;;;;;;;;;;;;;;;32.83;35.66797;102202.3;;;;-75
2022/05/18 14:01:59;;;;;;;;;;;;;;;32.85;36.31836;102202.1;;;;-76
2022/05/18 14:04:25;;;;;;;2.3;1.3;;;;;;;;;;;;;-76
2022/05/18 14:06:59;;;;;;;;;;;;;;;32.89;36.48633;102199.4;;;;-76
2022/05/18 14:11:58;;;;;;;;;;;;;;;32.96;37.15234;102199.6;;;;-76
2022/05/18 14:17:01;;;;;;;;;;;;;;;33.03;35.50586;102195.4;;;;-77
2022/05/18 14:21:56;;;;;;;;;;;;;;;33.04;36.23828;102190.3;;;;-77
2022/05/18 14:26:59;;;;;;;;;;;;;;;33;35.75195;102191.9;;;;-76
2022/05/18 14:31:59;;;;;;;;;;;;;;;33.02;34.45605;102189.5;;;;-76
2022/05/18 14:34:32;;;;;;;3.9;1.4;;;;;;;;;;;;;-77
2022/05/18 14:36:57;;;;;;;;;;;;;;;33.14;34.84277;102187.2;;;;-77
2022/05/18 14:41:57;;;;;;;;;;;;;;;33.24;34.07129;102186.5;;;;-77
2022/05/18 14:46:57;;;;;;;;;;;;;;;33.27;34.61719;102183.3;;;;-76
2022/05/18 14:52:01;;;;;;;;;;;;;;;33.38;34.3418;102175.9;;;;-76
2022/05/18 14:57:00;;;;;;;;;;;;;;;33.49;33.25098;102171.2;;;;-77
2022/05/18 15:01:58;;;;;;;;;;;;;;;33.49;34.05469;102175.1;;;;-76
2022/05/18 15:04:38;;;;;;;3.6;1.2;;;;;;;;;;;;;-78
2022/05/18 15:06:59;;;;;;;;;;;;;;;33.4;34.25977;102174.9;;;;-76
2022/05/18 15:12:00;;;;;;;;;;;;;;;33.29;33.98047;102170.7;;;;-77
2022/05/18 15:16:57;;;;;;;;;;;;;;;33.17;34.45508;102165.3;;;;-76
2022/05/18 15:22:04;;;;;;;;;;;;;;;33.02;34.67969;102165;;;;-77
2022/05/18 15:26:59;;;;;;;;;;;;;;;32.82;35.5957;102165.3;;;;-77
2022/05/18 15:32:00;;;;;;;;;;;;;;;32.73;35.56641;102164.6;;;;-76
2022/05/18 15:34:41;;;;;;;4.4;1.3;;;;;;;;;;;;;-76
2022/05/18 15:36:56;;;;;;;;;;;;;;;32.65;35.37109;102166.4;;;;-76
2022/05/18 15:41:56;;;;;;;;;;;;;;;32.64;35.39453;102165.2;;;;-78
2022/05/18 15:46:58;;;;;;;;;;;;;;;32.58;35.67188;102163.3;;;;-76
2022/05/18 15:52:01;;;;;;;;;;;;;;;32.51;35.74902;102166.6;;;;-76
2022/05/18 15:56:56;;;;;;;;;;;;;;;32.45;35.6377;102160;;;;-77
2022/05/18 16:01:56;;;;;;;;;;;;;;;32.39;35.28027;102156;;;;-76
2022/05/18 16:04:43;;;;;;;3.5;1.3;;;;;;;;;;;;;-75
2022/05/18 16:06:56;;;;;;;;;;;;;;;32.29;35.86133;102156.2;;;;-78
2022/05/18 16:11:56;;;;;;;;;;;;;;;32.15;36.14453;102156.5;;;;-77
2022/05/18 16:16:56;;;;;;;;;;;;;;;31.95;36.55273;102155.3;;;;-76
2022/05/18 16:21:56;;;;;;;;;;;;;;;31.73;37.47559;102145.8;;;;-76
2022/05/18 16:26:56;;;;;;;;;;;;;;;31.51;37.3623;102143.1;;;;-77
2022/05/18 16:31:56;;;;;;;;;;;;;;;31.31;38.05078;102143.5;;;;-76
2022/05/18 16:34:48;;;;;;;2.6;1.3;;;;;;;;;;;;;-78
2022/05/18 16:36:56;;;;;;;;;;;;;;;31.11;38.41016;102142.2;;;;-76
2022/05/18 16:41:56;;;;;;;;;;;;;;;30.9;38.73242;102137.6;;;;-75
2022/05/18 16:46:58;;;;;;;;;;;;;;;30.68;38.94824;102135.5;;;;-76
2022/05/18 16:51:57;;;;;;;;;;;;;;;30.47;39.14063;102124.7;;;;-76
2022/05/18 16:56:56;;;;;;;;;;;;;;;30.25;39.34473;102118;;;;-77
2022/05/18 17:01:56;;;;;;;;;;;;;;;30.05;39.58496;102118.2;;;;-76
2022/05/18 17:06:56;;;;;;;;;;;;;;;29.84;39.76563;102120.6;;;;-76
2022/05/18 17:11:57;;;;;;;;;;;;;;;29.65;39.7832;102124.7;;;;-76
2022/05/18 17:16:57;;;;;;;;;;;;;;;29.42;39.99707;102123.4;;;;-76
2022/05/18 17:21:56;;;;;;;;;;;;;;;29.18;40.12793;102117.5;;;;-75
2022/05/18 17:31:56;;;;;;;;;;;;;;;28.71;40.43652;102123;;;;-77
2022/05/18 17:34:57;;;;;;;4.2;1.4;;;;;;;;;;;;;-77
2022/05/18 17:36:56;;;;;;;;;;;;;;;28.47;40.5791;102119.1;;;;-77
2022/05/18 17:41:56;;;;;;;;;;;;;;;28.27;40.46777;102118.7;;;;-76
2022/05/18 17:46:58;;;;;;;;;;;;;;;28.05;40.63379;102119.7;;;;-75
2022/05/18 17:51:56;;;;;;;;;;;;;;;27.83;40.32324;102117;;;;-76
2022/05/18 17:56:56;;;;;;;;;;;;;;;27.61;40.67578;102114.5;;;;-76
2022/05/18 18:01:56;;;;;;;;;;;;;;;27.39;40.50488;102113.3;;;;-77
2022/05/18 18:05:02;;;;;;;2.7;1.2;;;;;;;;;;;;;-74
2022/05/18 18:06:56;;;;;;;;;;;;;;;27.16;40.57715;102110.8;;;;-73
2022/05/18 18:11:56;;;;;;;;;;;;;;;26.92;40.55566;102107;;;;-75
2022/05/18 18:16:56;;;;;;;;;;;;;;;26.69;40.7793;102113.9;;;;-73
2022/05/18 18:21:56;;;;;;;;;;;;;;;26.46;41.02539;102106.7;;;;-75
2022/05/18 18:26:56;;;;;;;;;;;;;;;26.22;40.74902;102101.4;;;;-72
2022/05/18 18:31:56;;;;;;;;;;;;;;;25.97;40.81836;102102.5;;;;-74
2022/05/18 18:35:05;;;;;;;2.9;1.4;;;;;;;;;;;;;-74
2022/05/18 18:36:57;;;;;;;;;;;;;;;25.75;40.94922;102094.8;;;;-76
2022/05/18 18:41:56;;;;;;;;;;;;;;;25.51;41.06543;102096.7;;;;-73
2022/05/18 18:46:57;;;;;;;;;;;;;;;25.25;41.18164;102099.6;;;;-74
2022/05/18 18:56:56;;;;;;;;;;;;;;;24.72;41.4209;102097.2;;;;-73
2022/05/18 19:01:56;;;;;;;;;;;;;;;24.45;41.99707;102088.2;;;;-76
2022/05/18 19:05:10;;;;;;;3.1;1.4;;;;;;;;;;;;;-76
2022/05/18 19:06:58;;;;;;;;;;;;;;;24.18;42.31836;102080.7;;;;-76
2022/05/18 19:11:57;;;;;;;;;;;;;;;23.91;42.67383;102074;;;;-76
2022/05/18 19:16:57;;;;;;;;;;;;;;;23.64;43.14258;102068.8;;;;-76
2022/05/18 19:21:57;;;;;;;;;;;;;;;23.36;43.77344;102064.9;;;;-76
2022/05/18 19:26:56;;;;;;;;;;;;;;;23.11;44.01367;102063.8;;;;-76
2022/05/18 19:31:57;;;;;;;;;;;;;;;22.86;44.41406;102062.3;;;;-77
2022/05/18 19:35:13;;;;;;;2.9;1.5;;;;;;;;;;;;;-77
2022/05/18 19:36:56;;;;;;;;;;;;;;;22.6;44.70996;102060.4;;;;-76
2022/05/18 19:41:56;;;;;;;;;;;;;;;22.34;45.13281;102055.5;;;;-77
2022/05/18 19:46:57;;;;;;;;;;;;;;;22.1;45.45313;102057.7;;;;-76
2022/05/18 19:51:56;;;;;;;;;;;;;;;21.88;45.78516;102065.5;;;;-77
2022/05/18 19:56:56;;;;;;;;;;;;;;;21.65;46.15137;102060.3;;;;-75
2022/05/18 20:01:56;;;;;;;;;;;;;;;21.43;46.42676;102058.3;;;;-77
2022/05/18 20:05:16;;;;;;;2.8;1.4;;;;;;;;;;;;;-75
2022/05/18 20:06:56;;;;;;;;;;;;;;;21.22;46.875;102054.9;;;;-75
2022/05/18 20:11:56;;;;;;;;;;;;;;;21;47.22852;102053.6;;;;-76
2022/05/18 20:16:56;;;;;;;;;;;;;;;20.81;47.58594;102044.3;;;;-76
2022/05/18 20:21:55;;;;;;;;;;;;;;;20.61;47.78223;102036.7;;;;-77
2022/05/18 20:26:56;;;;;;;;;;;;;;;20.43;48.25293;102028;;;;-79
2022/05/18 20:31:57;;;;;;;;;;;;;;;20.27;48.63574;102019.8;;;;-79
2022/05/18 20:35:19;;;;;;;3.6;1.5;;;;;;;;;;;;;-79
2022/05/18 20:36:56;;;;;;;;;;;;;;;20.11;49.12109;102021.7;;;;-77
2022/05/18 20:41:55;;;;;;;;;;;;;;;19.97;49.10645;102014.3;;;;-79
2022/05/18 20:46:56;;;;;;;;;;;;;;;19.84;49.36621;102008.3;;;;-78
2022/05/18 20:51:56;;;;;;;;;;;;;;;19.71;49.7959;102005.2;;;;-79
2022/05/18 21:02:39;;;;;;;;;;;;;;;19.48;49.83887;102007;;;;-82
2022/05/18 21:08:46;;;;;;;;;;;;;;;19.3;50.12598;101997.4;;;;-85
2022/05/18 21:17:57;;;;;;;;;;;;;;;19.14;50.36914;102006.4;;;;-82
2022/05/18 21:23:04;;;;;;;;;;;;;;;19.03;50.37988;102004;;;;-83
2022/05/18 21:28:04;;;;;;;;;;;;;;;18.92;50.68652;102003;;;;-82
2022/05/18 21:32:59;;;;;;;;;;;;;;;18.85;50.94043;102000.7;;;;-81
2022/05/18 21:35:37;;;;;;;2.8;1.5;;;;;;;;;;;;;-82
2022/05/18 21:38:01;;;;;;;;;;;;;;;18.75;51.09961;102000.4;;;;-82
2022/05/18 21:43:13;;;;;;;;;;;;;;;18.67;51.51074;101995.7;;;;-84
2022/05/18 21:47:55;;;;;;;;;;;;;;;18.58;51.46582;101986.9;;;;-83
2022/05/18 21:52:57;;;;;;;;;;;;;;;18.5;51.44531;101990.4;;;;-83
2022/05/18 21:58:04;;;;;;;;;;;;;;;18.36;51.62207;101981.2;;;;-82
2022/05/18 22:02:57;;;;;;;;;;;;;;;18.33;51.60645;101977.7;;;;-81
2022/05/18 22:05:27;;;;;;;4.1;1.5;;;;;;;;;;;;;-83
2022/05/18 22:08:04;;;;;;;;;;;;;;;18.26;51.8252;101971.4;;;;-80
2022/05/18 22:12:54;;;;;;;;;;;;;;;18.19;52.02246;101962.8;;;;-82
2022/05/18 22:17:53;;;;;;;;;;;;;;;18.12;52.05859;101952.5;;;;-80
2022/05/18 22:22:53;;;;;;;;;;;;;;;18.06;52.09766;101945.8;;;;-82
2022/05/18 22:27:56;;;;;;;;;;;;;;;18;52.4541;101936.8;;;;-83
2022/05/18 22:32:59;;;;;;;;;;;;;;;17.95;52.7998;101933.6;;;;-80
2022/05/18 22:35:35;;;;;;;2.8;1.7;;;;;;;;;;;;;-81
2022/05/18 22:37:56;;;;;;;;;;;;;;;17.89;52.92871;101925.8;;;;-81
2022/05/18 22:42:54;;;;;;;;;;;;;;;17.84;53.30859;101924.4;;;;-81
2022/05/18 22:47:53;;;;;;;;;;;;;;;17.81;53.46289;101918;;;;-80
2022/05/18 22:52:59;;;;;;;;;;;;;;;17.8;53.60938;101908;;;;-82
2022/05/18 22:58:06;;;;;;;;;;;;;;;17.77;53.66406;101899.9;;;;-82
2022/05/18 23:02:57;;;;;;;;;;;;;;;17.74;53.69238;101898;;;;-81
2022/05/18 23:05:33;;;;;;;5.5;2.5;;;;;;;;;;;;;-81
2022/05/18 23:07:56;;;;;;;;;;;;;;;17.71;54.36914;101891.4;;;;-81
2022/05/18 23:12:54;;;;;;;;;;;;;;;17.68;54.72852;101887.3;;;;-81
2022/05/18 23:18:04;;;;;;;;;;;;;;;17.65;54.81641;101882;;;;-83
2022/05/18 23:27:54;;;;;;;;;;;;;;;17.62;55.02637;101871.8;;;;-82
2022/05/18 23:32:59;;;;;;;;;;;;;;;17.6;55.12793;101872.1;;;;-81
2022/05/18 23:35:38;;;;;;;7.3;3.3;;;;;;;;;;;;;-82
2022/05/18 23:37:55;;;;;;;;;;;;;;;17.58;55.37305;101866.6;;;;-81
2022/05/18 23:42:57;;;;;;;;;;;;;;;17.58;55.58887;101856.5;;;;-82
2022/05/18 23:48:02;;;;;;;;;;;;;;;17.56;55.5293;101853.6;;;;-81
2022/05/18 23:52:54;;;;;;;;;;;;;;;17.56;55.56348;101851.8;;;;-82
2022/05/18 23:58:06;;;;;;;;;;;;;;;17.55;55.46094;101848.3;;;;-81
